createdAt,value
2023-05-14T00:00:17.319Z,94.6455
2023-05-14T00:01:17.321Z,94.8080
2023-05-14T00:02:17.908Z,94.8557
2023-05-14T00:03:18.917Z,94.4261
2023-05-14T00:04:19.840Z,94.7085
2023-05-14T00:05:20.084Z,95.0009
2023-05-14T00:06:20.242Z,95.1640
2023-05-14T00:07:20.556Z,95.2722
2023-05-14T00:08:21.526Z,95.3932
2023-05-14T00:09:22.686Z,95.0128
2023-05-14T00:10:23.545Z,94.9166
2023-05-14T00:11:24.233Z,95.1846
2023-05-14T00:12:24.372Z,95.5100
2023-05-14T00:13:24.660Z,95.7021
2023-05-14T00:14:24.793Z,95.6375
2023-05-14T00:15:25.832Z,95.3336
2023-05-14T00:16:27.152Z,95.1431
2023-05-14T00:17:28.023Z,95.1830
2023-05-14T00:18:28.823Z,95.1373
2023-05-14T00:20:49.517Z,95.2071
2023-05-14T00:28:56.742Z,95.3883
2023-05-14T00:30:56.408Z,95.5994
2023-05-14T00:31:56.357Z,95.7253
2023-05-14T00:32:57.275Z,95.7976
2023-05-14T00:33:58.144Z,95.7791
2023-05-14T00:34:59.520Z,95.7712
2023-05-14T00:36:00.418Z,95.7130
2023-05-14T00:37:01.105Z,95.7758
2023-05-14T00:38:01.593Z,95.8661
2023-05-14T00:39:02.495Z,95.8193
2023-05-14T00:40:03.138Z,95.6727
2023-05-14T00:41:03.512Z,95.4287
2023-05-14T00:45:05.218Z,95.3906
2023-05-14T00:46:05.498Z,95.4426
2023-05-14T00:47:07.273Z,95.5794
2023-05-14T00:48:07.938Z,95.6308
2023-05-14T00:49:08.270Z,95.6014
2023-05-14T00:50:09.275Z,95.6110
2023-05-14T00:51:09.862Z,95.6584
2023-05-14T00:52:09.992Z,95.6563
2023-05-14T00:53:10.149Z,95.6725
2023-05-14T00:54:11.656Z,95.8000
2023-05-14T01:00:16.664Z,95.6523
2023-05-14T01:05:18.474Z,95.3228
2023-05-14T01:14:22.885Z,95.2864
2023-05-14T01:15:23.354Z,95.5001
2023-05-14T01:16:23.838Z,95.6516
2023-05-14T01:17:24.969Z,95.5714
2023-05-14T01:18:24.991Z,95.5410
2023-05-14T01:19:26.197Z,95.5043
2023-05-14T01:20:27.644Z,95.2411
2023-05-14T01:21:27.913Z,94.9265
2023-05-14T01:22:29.119Z,94.8565
2023-05-14T01:35:33.132Z,94.9178
2023-05-14T01:37:33.275Z,94.9461
2023-05-14T01:38:34.218Z,94.9871
2023-05-14T01:40:35.200Z,95.0227
2023-05-14T01:41:36.115Z,95.2495
2023-05-14T01:42:37.250Z,95.3561
2023-05-14T01:43:37.475Z,95.4764
2023-05-14T01:44:37.841Z,95.6668
2023-05-14T01:51:41.113Z,95.4087
2023-05-14T01:59:46.509Z,95.3632
2023-05-14T02:00:46.550Z,95.5090
2023-05-14T02:02:49.765Z,95.6355
2023-05-14T02:03:50.147Z,95.7332
2023-05-14T02:05:53.668Z,95.6602
2023-05-14T02:07:54.512Z,95.9414
2023-05-14T02:08:54.857Z,96.1124
2023-05-14T02:09:56.006Z,96.2136
2023-05-14T02:10:57.047Z,96.2343
2023-05-14T02:11:57.378Z,96.1044
2023-05-14T02:12:57.452Z,95.9403
2023-05-14T02:13:57.829Z,95.8033
2023-05-14T02:14:59.042Z,95.8416
2023-05-14T02:20:02.134Z,96.0019
2023-05-14T02:21:02.938Z,96.0150
2023-05-14T02:22:03.789Z,96.0218
2023-05-14T02:23:03.908Z,95.8333
2023-05-14T02:24:05.174Z,95.7949
2023-05-14T02:25:05.860Z,95.8323
2023-05-14T02:26:06.912Z,95.8981
2023-05-14T02:35:15.101Z,95.6232
2023-05-14T02:36:14.541Z,95.5950
2023-05-14T02:37:14.888Z,95.5672
2023-05-14T02:38:15.533Z,95.6123
2023-05-14T02:39:15.890Z,95.6408
2023-05-14T02:40:16.811Z,95.7056
2023-05-14T02:41:18.317Z,95.8954
2023-05-14T02:42:19.274Z,96.0925
2023-05-14T02:44:20.862Z,96.3790
2023-05-14T02:45:21.324Z,96.5117
2023-05-14T02:46:21.614Z,96.6155
2023-05-14T02:47:22.696Z,96.6550
2023-05-14T02:48:23.393Z,96.6564
2023-05-14T02:49:24.580Z,96.6525
2023-05-14T02:50:25.273Z,96.6958
2023-05-14T02:51:25.468Z,96.7455
2023-05-14T02:52:26.180Z,96.7896
2023-05-14T02:53:26.880Z,96.8190
2023-05-14T02:54:27.433Z,96.8394
2023-05-14T02:55:28.465Z,96.8156
2023-05-14T02:56:29.219Z,96.7962
2023-05-14T02:57:29.320Z,96.8127
2023-05-14T02:58:30.227Z,96.8343
2023-05-14T02:59:30.507Z,96.8193
2023-05-14T03:00:30.539Z,96.8038
2023-05-14T03:01:31.345Z,96.7710
2023-05-14T03:02:32.162Z,96.7935
2023-05-14T03:11:42.262Z,96.7973
2023-05-14T03:13:41.998Z,96.8239
2023-05-14T03:14:43.517Z,96.8230
2023-05-14T03:15:44.774Z,96.7714
2023-05-14T03:16:45.620Z,96.7591
2023-05-14T03:17:46.821Z,96.8011
2023-05-14T03:21:48.335Z,96.9246
2023-05-14T03:22:49.175Z,96.9464
2023-05-14T03:23:49.930Z,97.0650
2023-05-14T03:24:50.183Z,97.1530
2023-05-14T03:25:50.538Z,97.1848
2023-05-14T03:26:51.920Z,97.2143
2023-05-14T03:31:55.725Z,97.5021
2023-05-14T03:42:02.944Z,98.1257
2023-05-14T03:43:03.437Z,98.1797
2023-05-14T03:44:03.657Z,98.2390
2023-05-14T03:45:04.532Z,98.2791
2023-05-14T03:46:05.442Z,98.3023
2023-05-14T03:48:06.331Z,98.3141
2023-05-14T03:49:06.941Z,98.3333
2023-05-14T03:51:06.722Z,98.3912
2023-05-14T03:52:10.597Z,98.4355
2023-05-14T03:54:09.318Z,98.4959
2023-05-14T04:02:13.972Z,98.6654
2023-05-14T04:03:14.707Z,98.6469
2023-05-14T04:04:15.790Z,98.6132
2023-05-14T04:05:17.190Z,98.5889
2023-05-14T04:07:18.093Z,98.5518
2023-05-14T04:08:19.112Z,98.5117
2023-05-14T04:10:20.317Z,98.4204
2023-05-14T04:11:20.547Z,98.3483
2023-05-14T04:12:20.559Z,98.2718
2023-05-14T04:13:22.097Z,98.1972
2023-05-14T04:14:22.815Z,98.1628
2023-05-14T04:18:24.553Z,97.8951
2023-05-14T04:19:24.650Z,97.8204
2023-05-14T04:20:24.886Z,97.6507
2023-05-14T04:21:26.125Z,97.4188
2023-05-14T04:22:26.361Z,97.2078
2023-05-14T04:23:26.604Z,97.0279
2023-05-14T04:24:27.786Z,97.0307
2023-05-14T04:30:32.613Z,96.6770
2023-05-14T04:31:34.567Z,96.3095
2023-05-14T04:35:35.708Z,95.9409
2023-05-14T04:36:36.442Z,96.0253
2023-05-14T04:37:37.129Z,95.9446
2023-05-14T04:38:37.312Z,95.7685
2023-05-14T04:43:40.252Z,95.8435
2023-05-14T04:49:44.212Z,94.7693
2023-05-14T04:50:45.274Z,94.3731
2023-05-14T04:51:46.112Z,94.0672
2023-05-14T04:52:46.802Z,94.0360
2023-05-14T04:53:47.762Z,94.3920
2023-05-14T04:54:47.508Z,94.6696
2023-05-14T04:55:48.448Z,94.9590
2023-05-14T05:01:53.309Z,94.5326
2023-05-14T05:13:02.079Z,92.3764
2023-05-14T05:14:02.749Z,91.6846
2023-05-14T05:16:02.808Z,92.2805
2023-05-14T05:17:03.271Z,92.4969
2023-05-14T05:18:04.807Z,92.4749
2023-05-14T05:19:05.908Z,92.0378
2023-05-14T05:20:06.790Z,92.0028
2023-05-14T05:21:07.254Z,92.1288
2023-05-14T05:28:10.863Z,91.2112
2023-05-14T05:29:11.186Z,90.7444
2023-05-14T05:30:11.783Z,90.6096
2023-05-14T05:31:13.169Z,90.8566
2023-05-14T05:33:13.229Z,90.3642
2023-05-14T05:35:13.941Z,90.2919
2023-05-14T05:36:14.593Z,90.3242
2023-05-14T05:37:15.910Z,90.3108
2023-05-14T05:51:27.929Z,89.2217
2023-05-14T05:52:28.720Z,88.6154
2023-05-14T05:53:29.423Z,88.2966
2023-05-14T05:54:30.054Z,87.8626
2023-05-14T05:55:31.285Z,88.0891
2023-05-14T05:56:32.560Z,87.8140
2023-05-14T05:57:32.623Z,87.6729
2023-05-14T05:58:33.280Z,86.6644
2023-05-14T05:59:34.007Z,86.5149
2023-05-14T06:09:38.585Z,88.9547
2023-05-14T06:10:39.137Z,89.7435
2023-05-14T06:11:39.382Z,89.9148
2023-05-14T06:12:39.965Z,90.8066
2023-05-14T06:13:40.738Z,91.3234
2023-05-14T06:14:41.188Z,90.8280
2023-05-14T06:15:43.053Z,91.0772
2023-05-14T06:16:44.407Z,91.3014
2023-05-14T06:17:44.854Z,91.2044
2023-05-14T06:18:45.803Z,91.6924
2023-05-14T06:19:46.352Z,92.0178
2023-05-14T06:20:46.527Z,91.1717
2023-05-14T06:22:49.843Z,91.0592
2023-05-14T06:23:50.302Z,91.2976
2023-05-14T06:24:50.358Z,91.3327
2023-05-14T06:26:54.662Z,91.7148
2023-05-14T06:27:55.006Z,91.5434
2023-05-14T06:28:55.091Z,91.4941
2023-05-14T06:30:57.474Z,91.9918
2023-05-14T06:31:57.812Z,91.5929
2023-05-14T06:34:01.022Z,91.8642
2023-05-14T06:35:02.108Z,91.6379
2023-05-14T06:37:02.866Z,90.9121
2023-05-14T06:38:02.934Z,90.9715
2023-05-14T06:39:03.690Z,91.3357
2023-05-14T06:40:05.186Z,90.8717
2023-05-14T06:41:05.350Z,90.4853
2023-05-14T06:43:07.611Z,91.0634
2023-05-14T06:48:17.027Z,91.2787
2023-05-14T06:49:17.961Z,91.4829
2023-05-14T06:50:18.883Z,91.4109
2023-05-14T06:54:38.691Z,91.3399
2023-05-14T06:55:39.799Z,91.4618
2023-05-14T06:56:40.053Z,91.2868
2023-05-14T06:57:41.024Z,91.2407
2023-05-14T06:58:42.843Z,91.3848
2023-05-14T07:00:42.978Z,91.8731
2023-05-14T07:01:44.088Z,91.3268
2023-05-14T07:02:45.032Z,91.0894
2023-05-14T07:09:26.055Z,92.7585
2023-05-14T07:10:28.654Z,92.8658
2023-05-14T07:18:08.915Z,93.0125
2023-05-14T07:19:09.746Z,93.1833
2023-05-14T07:20:11.216Z,93.3003
2023-05-14T07:21:11.335Z,93.4431
2023-05-14T07:22:12.969Z,93.9874
2023-05-14T07:23:13.756Z,94.1819
2023-05-14T07:25:14.655Z,94.1636
2023-05-14T07:26:14.711Z,93.6901
2023-05-14T07:27:15.726Z,93.3510
2023-05-14T07:28:17.188Z,93.4250
2023-05-14T07:29:17.237Z,93.4640
2023-05-14T07:30:17.693Z,92.7736
2023-05-14T07:31:19.364Z,91.8787
2023-05-14T07:32:20.246Z,90.9568
2023-05-14T07:36:21.477Z,89.0427
2023-05-14T07:38:22.457Z,88.2973
2023-05-14T07:39:22.758Z,88.4119
2023-05-14T07:40:23.081Z,88.9106
2023-05-14T07:46:25.179Z,88.0199
2023-05-14T07:47:26.518Z,86.8734
2023-05-14T07:48:27.015Z,84.5794
2023-05-14T07:49:27.935Z,83.9603
2023-05-14T07:50:29.142Z,83.0556
2023-05-14T07:51:30.206Z,82.6263
2023-05-14T07:52:31.957Z,81.8076
2023-05-14T07:53:32.585Z,81.1207
2023-05-14T07:54:33.388Z,81.2575
2023-05-14T07:55:34.145Z,78.4093
2023-05-14T07:56:46.949Z,78.0763
2023-05-14T08:06:54.103Z,82.3920
2023-05-14T08:10:56.994Z,82.2739
2023-05-14T08:13:57.140Z,79.9926
2023-05-14T08:14:57.616Z,79.4932
2023-05-14T08:15:57.624Z,79.3450
2023-05-14T08:16:58.854Z,81.1375
2023-05-14T08:17:59.454Z,80.4120
2023-05-14T08:19:00.497Z,81.9306
2023-05-14T08:20:01.839Z,83.0404
2023-05-14T08:21:05.408Z,84.0571
2023-05-14T08:22:06.196Z,82.0126
2023-05-14T08:23:07.412Z,80.7817
2023-05-14T08:25:10.066Z,80.0542
2023-05-14T08:26:10.436Z,79.3790
2023-05-14T08:29:46.208Z,84.7674
2023-05-14T08:30:46.630Z,84.2404
2023-05-14T08:31:46.858Z,84.0219
2023-05-14T08:32:47.489Z,84.0083
2023-05-14T08:33:48.502Z,84.3838
2023-05-14T08:34:50.003Z,84.1583
2023-05-14T08:36:55.195Z,83.7096
2023-05-14T08:37:55.678Z,83.1177
2023-05-14T08:38:56.018Z,84.0221
2023-05-14T08:39:56.454Z,83.7825
2023-05-14T08:40:56.939Z,83.0554
2023-05-14T08:41:57.801Z,82.0580
2023-05-14T08:42:58.951Z,81.5490
2023-05-14T08:43:59.736Z,81.5111
2023-05-14T08:45:00.781Z,81.9333
2023-05-14T08:46:01.897Z,81.8664
2023-05-14T08:47:02.246Z,81.6964
2023-05-14T08:48:04.863Z,81.1403
2023-05-14T08:50:03.718Z,81.2453
2023-05-14T08:51:04.191Z,82.2124
2023-05-14T08:52:04.948Z,82.2982
2023-05-14T08:53:05.528Z,80.8839
2023-05-14T08:54:05.723Z,80.5022
2023-05-14T08:55:06.651Z,79.2203
2023-05-14T08:56:06.526Z,79.1768
2023-05-14T08:57:07.012Z,78.5413
2023-05-14T09:05:14.789Z,75.5817
2023-05-14T09:06:15.580Z,73.8184
2023-05-14T09:07:16.249Z,72.9363
2023-05-14T09:09:04.183Z,74.2656
2023-05-14T09:10:04.608Z,76.6869
2023-05-14T09:11:06.628Z,76.3986
2023-05-14T09:12:07.477Z,75.9171
2023-05-14T09:13:08.683Z,75.4299
2023-05-14T09:14:09.880Z,73.0293
2023-05-14T09:15:10.941Z,74.7962
2023-05-14T09:16:12.466Z,75.6917
2023-05-14T09:17:12.255Z,75.6967
2023-05-14T09:18:13.495Z,76.6737
2023-05-14T09:19:14.227Z,74.8141
2023-05-14T09:20:15.167Z,74.6879
2023-05-14T09:24:04.407Z,79.0688
2023-05-14T09:30:09.629Z,80.3676
2023-05-14T09:31:09.740Z,80.2028
2023-05-14T09:33:09.799Z,81.7463
2023-05-14T09:35:10.686Z,82.7976
2023-05-14T09:36:11.969Z,83.0809
2023-05-14T09:37:12.892Z,82.2986
2023-05-14T09:43:22.971Z,80.2964
2023-05-14T09:46:26.617Z,78.3970
2023-05-14T09:47:26.917Z,78.2716
2023-05-14T09:48:26.985Z,79.0428
2023-05-14T09:49:27.810Z,78.8779
2023-05-14T09:51:29.033Z,77.0655
2023-05-14T09:52:29.700Z,77.1474
2023-05-14T09:53:30.756Z,78.3946
2023-05-14T09:57:58.389Z,81.3793
2023-05-14T09:58:58.897Z,82.4919
2023-05-14T10:00:00.001Z,82.4489
2023-05-14T10:01:01.078Z,82.5300
2023-05-14T10:02:02.260Z,83.5063
2023-05-14T10:03:02.262Z,83.8951
2023-05-14T10:04:04.057Z,83.7218
2023-05-14T10:05:05.262Z,83.7613
2023-05-14T10:06:05.399Z,82.6939
2023-05-14T10:07:06.413Z,83.2463
2023-05-14T10:08:06.792Z,84.1435
2023-05-14T10:09:07.405Z,84.2938
2023-05-14T10:10:08.514Z,84.3179
2023-05-14T10:12:09.651Z,83.9420
2023-05-14T10:13:10.601Z,83.4340
2023-05-14T10:16:41.015Z,83.2089
2023-05-14T10:17:41.149Z,83.9609
2023-05-14T10:18:42.303Z,83.2423
2023-05-14T10:19:43.166Z,82.4000
2023-05-14T10:20:44.306Z,82.5684
2023-05-14T10:21:45.144Z,82.6107
2023-05-14T10:22:45.408Z,82.0828
2023-05-14T10:29:25.077Z,81.0726
2023-05-14T10:30:26.446Z,81.1683
2023-05-14T10:31:26.430Z,81.4234
2023-05-14T10:32:27.166Z,81.8952
2023-05-14T10:33:27.679Z,82.6297
2023-05-14T10:34:29.008Z,82.6157
2023-05-14T10:35:30.244Z,83.3597
2023-05-14T10:36:31.102Z,82.0631
2023-05-14T10:37:31.752Z,83.3530
2023-05-14T10:42:20.660Z,81.1727
2023-05-14T10:51:07.710Z,79.5730
2023-05-14T10:52:07.749Z,79.2871
2023-05-14T10:53:08.717Z,77.8790
2023-05-14T10:54:09.123Z,78.5537
2023-05-14T10:55:10.404Z,76.3139
2023-05-14T10:56:10.629Z,78.0523
2023-05-14T10:57:11.346Z,77.9377
2023-05-14T10:58:11.531Z,78.0496
2023-05-14T10:59:12.615Z,77.3930
2023-05-14T11:00:13.273Z,76.8359
2023-05-14T11:01:13.329Z,76.4194
2023-05-14T11:02:15.901Z,76.6132
2023-05-14T11:06:40.378Z,72.9745
2023-05-14T11:10:41.680Z,66.5380
2023-05-14T11:11:42.771Z,67.0090
2023-05-14T11:12:43.440Z,66.7886
2023-05-14T11:13:44.244Z,68.2122
2023-05-14T11:18:48.534Z,69.9817
2023-05-14T11:19:50.461Z,70.0100
2023-05-14T11:31:31.454Z,80.7294
2023-05-14T11:32:31.719Z,81.2146
2023-05-14T11:33:33.341Z,81.1987
2023-05-14T11:34:33.322Z,80.3756
2023-05-14T11:35:34.284Z,79.3039
2023-05-14T11:36:36.277Z,79.0683
2023-05-14T11:38:36.441Z,79.0236
2023-05-14T11:41:39.737Z,77.3994
2023-05-14T11:43:45.782Z,75.8931
2023-05-14T11:48:53.674Z,75.9795
2023-05-14T11:49:53.924Z,76.2428
2023-05-14T11:51:29.098Z,77.2435
2023-05-14T11:53:33.493Z,78.0824
2023-05-14T11:55:31.290Z,75.7441
2023-05-14T11:58:32.230Z,75.3119
2023-05-14T11:59:33.201Z,74.6347
2023-05-14T12:01:34.298Z,75.1804
2023-05-14T12:02:35.234Z,73.2108
2023-05-14T12:03:35.821Z,72.7763
2023-05-14T12:04:35.482Z,73.5616
2023-05-14T12:05:36.148Z,73.5937
2023-05-14T12:06:38.167Z,73.0524
2023-05-14T12:07:37.924Z,73.5168
2023-05-14T12:12:40.472Z,76.8346
2023-05-14T12:13:41.867Z,76.4264
2023-05-14T12:14:42.592Z,77.3820
2023-05-14T12:21:54.434Z,83.5914
2023-05-14T12:22:55.209Z,84.0377
2023-05-14T12:23:55.923Z,84.4703
2023-05-14T12:24:57.145Z,85.0226
2023-05-14T12:25:57.719Z,85.3994
2023-05-14T12:26:58.028Z,85.5146
2023-05-14T12:27:58.380Z,85.9961
2023-05-14T12:28:59.170Z,85.9118
2023-05-14T12:30:09.203Z,86.3727
2023-05-14T12:31:00.486Z,87.1794
2023-05-14T12:33:02.928Z,87.4919
2023-05-14T12:34:04.087Z,87.6226
2023-05-14T12:36:20.746Z,88.5897
2023-05-14T12:37:07.549Z,88.7914
2023-05-14T12:38:07.682Z,89.2455
2023-05-14T12:39:08.894Z,89.6568
2023-05-14T12:40:10.353Z,89.9443
2023-05-14T12:41:11.491Z,90.2776
2023-05-14T12:42:12.172Z,89.9424
2023-05-14T12:43:12.506Z,90.3691
2023-05-14T12:45:13.720Z,91.0167
2023-05-14T12:49:17.886Z,90.5799
2023-05-14T12:51:19.740Z,90.0645
2023-05-14T12:53:24.058Z,91.4296
2023-05-14T12:56:25.357Z,91.0803
2023-05-14T12:58:26.328Z,91.5598
2023-05-14T12:59:26.587Z,91.4140
2023-05-14T13:00:26.922Z,91.6089
2023-05-14T13:01:27.608Z,91.7223
2023-05-14T13:02:28.637Z,90.8446
2023-05-14T13:03:29.138Z,89.9835
2023-05-14T13:04:30.438Z,89.1072
2023-05-14T13:05:31.541Z,88.6403
2023-05-14T13:06:32.491Z,88.7534
2023-05-14T13:07:32.957Z,89.1623
2023-05-14T13:08:33.400Z,89.7179
2023-05-14T13:09:33.980Z,89.4746
2023-05-14T13:10:34.598Z,88.9643
2023-05-14T13:17:42.272Z,83.6691
2023-05-14T13:19:42.870Z,84.8555
2023-05-14T13:20:43.482Z,84.9137
2023-05-14T13:21:44.105Z,84.6938
2023-05-14T13:22:44.853Z,85.3969
2023-05-14T13:24:46.768Z,84.2505
2023-05-14T13:27:47.396Z,83.6280
2023-05-14T13:29:48.274Z,83.3434
2023-05-14T13:36:53.498Z,82.7180
2023-05-14T13:37:54.516Z,82.5391
2023-05-14T13:38:55.648Z,82.1984
2023-05-14T13:39:55.921Z,82.1964
2023-05-14T13:40:56.322Z,82.1878
2023-05-14T13:41:56.628Z,82.0463
2023-05-14T13:42:57.701Z,81.7167
2023-05-14T13:43:58.388Z,80.6989
2023-05-14T13:45:58.741Z,79.2807
2023-05-14T13:46:58.944Z,79.6339
2023-05-14T13:47:59.526Z,79.3000
2023-05-14T13:48:59.625Z,79.5363
2023-05-14T13:50:00.865Z,78.2992
2023-05-14T13:51:02.019Z,78.2905
2023-05-14T13:52:02.447Z,79.6106
2023-05-14T13:53:03.301Z,81.0146
2023-05-14T13:54:04.301Z,81.3932
2023-05-14T13:55:04.976Z,81.0198
2023-05-14T13:56:05.321Z,81.2980
2023-05-14T13:57:06.434Z,80.1453
2023-05-14T13:58:06.861Z,78.6771
2023-05-14T13:59:06.689Z,75.9974
2023-05-14T14:00:07.354Z,75.2139
2023-05-14T14:01:07.701Z,76.2580
2023-05-14T14:03:08.775Z,74.7675
2023-05-14T14:04:09.603Z,72.8703
2023-05-14T14:05:10.144Z,72.3262
2023-05-14T14:06:10.472Z,72.4857
2023-05-14T14:07:11.301Z,73.0299
2023-05-14T14:08:23.473Z,72.2666
2023-05-14T14:09:19.039Z,71.4453
2023-05-14T14:12:20.772Z,72.7637
2023-05-14T14:13:21.778Z,74.1041
2023-05-14T14:14:20.932Z,73.9016
2023-05-14T14:15:20.937Z,74.6061
2023-05-14T14:16:22.129Z,74.4485
2023-05-14T14:17:23.109Z,73.7899
2023-05-14T14:25:28.709Z,71.1043
2023-05-14T14:26:28.718Z,71.9238
2023-05-14T14:27:29.449Z,71.5413
2023-05-14T14:28:29.759Z,71.6977
2023-05-14T14:29:29.853Z,71.2191
2023-05-14T14:30:30.958Z,73.3319
2023-05-14T14:31:31.860Z,73.9357
2023-05-14T14:32:33.058Z,72.9424
2023-05-14T14:33:33.480Z,73.6949
2023-05-14T14:34:34.567Z,74.1787
2023-05-14T14:35:35.329Z,74.8976
2023-05-14T14:36:35.785Z,74.5642
2023-05-14T14:37:37.340Z,74.3822
2023-05-14T14:44:39.665Z,76.5402
2023-05-14T14:45:40.014Z,75.2651
2023-05-14T14:46:41.032Z,75.6899
2023-05-14T14:47:42.171Z,76.1842
2023-05-14T14:48:42.501Z,76.4267
2023-05-14T14:49:43.372Z,76.9016
2023-05-14T14:50:43.824Z,77.1446
2023-05-14T14:51:45.472Z,78.5163
2023-05-14T14:52:46.742Z,80.1011
2023-05-14T14:53:47.152Z,81.5264
2023-05-14T14:54:47.356Z,83.2021
2023-05-14T14:55:48.613Z,83.7314
2023-05-14T14:56:49.833Z,84.3688
2023-05-14T14:57:51.061Z,85.2412
2023-05-14T14:58:51.011Z,86.4322
2023-05-14T14:59:51.059Z,87.2565
2023-05-14T15:00:52.163Z,88.4412
2023-05-14T15:01:52.667Z,88.4721
2023-05-14T15:02:52.930Z,89.7529
2023-05-14T15:03:54.010Z,89.1777
2023-05-14T15:04:54.753Z,89.6612
2023-05-14T15:05:55.498Z,89.7028
2023-05-14T15:06:55.902Z,90.0380
2023-05-14T15:07:56.360Z,90.0941
2023-05-14T15:08:57.465Z,90.0353
2023-05-14T15:09:58.014Z,90.4994
2023-05-14T15:10:58.208Z,90.5902
2023-05-14T15:11:58.437Z,91.0212
2023-05-14T15:12:58.534Z,91.1931
2023-05-14T15:13:59.154Z,91.6158
2023-05-14T15:14:59.615Z,91.9348
2023-05-14T15:16:00.701Z,92.1424
2023-05-14T15:17:01.240Z,92.5865
2023-05-14T15:18:02.418Z,93.1675
2023-05-14T15:19:02.691Z,93.8224
2023-05-14T15:20:03.305Z,94.1631
2023-05-14T15:21:04.445Z,94.4629
2023-05-14T15:22:04.440Z,94.4365
2023-05-14T15:23:05.124Z,94.1337
2023-05-14T15:24:05.786Z,93.5630
2023-05-14T15:25:05.997Z,94.1611
2023-05-14T15:26:06.025Z,94.9589
2023-05-14T15:27:07.096Z,95.1863
2023-05-14T15:28:08.216Z,95.3435
2023-05-14T15:29:08.455Z,95.7832
2023-05-14T15:30:09.203Z,96.1421
2023-05-14T15:31:10.253Z,96.2310
2023-05-14T15:32:11.610Z,96.4591
2023-05-14T15:33:12.387Z,95.9732
2023-05-14T15:34:14.053Z,95.1679
2023-05-14T15:35:13.751Z,92.3322
2023-05-14T15:36:14.213Z,89.7322
2023-05-14T15:37:14.290Z,90.1938
2023-05-14T15:38:15.311Z,91.4911
2023-05-14T15:39:15.696Z,93.5074
2023-05-14T15:40:16.000Z,92.7284
2023-05-14T15:41:17.366Z,93.1976
2023-05-14T15:43:18.195Z,92.2792
2023-05-14T15:45:20.945Z,92.5947
2023-05-14T15:46:22.054Z,93.9298
2023-05-14T15:47:22.791Z,93.0628
2023-05-14T15:48:23.848Z,93.1403
2023-05-14T15:49:24.193Z,93.8591
2023-05-14T15:50:25.276Z,94.4601
2023-05-14T15:51:25.122Z,94.9858
2023-05-14T15:52:26.116Z,95.2803
2023-05-14T15:53:26.977Z,95.3201
2023-05-14T15:54:27.835Z,95.3125
2023-05-14T15:55:28.098Z,95.0282
2023-05-14T15:56:28.931Z,95.3969
2023-05-14T15:57:29.790Z,95.3046
2023-05-14T15:58:29.856Z,95.0973
2023-05-14T15:59:30.890Z,94.9534
2023-05-14T16:00:32.024Z,94.9107
2023-05-14T16:01:32.556Z,94.7371
2023-05-14T16:02:33.449Z,94.5616
2023-05-14T16:03:34.067Z,94.6951
2023-05-14T16:04:34.371Z,94.5531
2023-05-14T16:05:35.517Z,93.4360
2023-05-14T16:06:36.278Z,92.8998
2023-05-14T16:07:37.534Z,93.0966
2023-05-14T16:08:38.275Z,93.6064
2023-05-14T16:09:38.778Z,93.9670
2023-05-14T16:10:39.668Z,93.3455
2023-05-14T16:11:39.885Z,92.7832
2023-05-14T16:12:40.790Z,92.7689
2023-05-14T16:14:42.079Z,94.4185
2023-05-14T16:16:42.776Z,95.2209
2023-05-14T16:17:44.504Z,93.7911
2023-05-14T16:18:45.368Z,93.2973
2023-05-14T16:19:45.783Z,93.6730
2023-05-14T16:20:46.731Z,93.7787
2023-05-14T16:21:47.211Z,95.1838
2023-05-14T16:22:47.841Z,96.0659
2023-05-14T16:23:48.648Z,96.5375
2023-05-14T16:24:49.149Z,96.7713
2023-05-14T16:25:50.498Z,96.9547
2023-05-14T16:27:50.759Z,96.4946
2023-05-14T16:28:52.335Z,96.4741
2023-05-14T16:29:52.762Z,96.7762
2023-05-14T16:30:53.926Z,97.0848
2023-05-14T16:31:54.946Z,97.2647
2023-05-14T16:32:56.051Z,97.3826
2023-05-14T16:33:57.194Z,97.4765
2023-05-14T16:34:57.652Z,97.6034
2023-05-14T16:35:58.169Z,97.7224
2023-05-14T16:38:00.089Z,97.7781
2023-05-14T16:39:07.314Z,97.8203
2023-05-14T16:40:03.325Z,97.9228
2023-05-14T16:41:03.843Z,98.0260
2023-05-14T16:42:03.932Z,98.1238
2023-05-14T16:43:04.809Z,98.2029
2023-05-14T16:44:05.044Z,98.2947
2023-05-14T16:45:05.805Z,98.3927
2023-05-14T16:46:06.497Z,98.4581
2023-05-14T16:47:07.231Z,98.5014
2023-05-14T16:49:08.146Z,98.5108
2023-05-14T16:52:09.814Z,98.1159
2023-05-14T16:53:10.128Z,97.6285
2023-05-14T16:54:10.276Z,97.5059
2023-05-14T16:57:13.330Z,97.6050
2023-05-14T16:58:14.193Z,97.6763
2023-05-14T16:59:15.334Z,97.7878
2023-05-14T17:00:16.442Z,97.8882
2023-05-14T17:01:17.833Z,97.9634
2023-05-14T17:02:18.638Z,98.0386
2023-05-14T17:03:18.681Z,98.1104
2023-05-14T17:04:19.321Z,98.1846
2023-05-14T17:05:19.690Z,98.2626
2023-05-14T17:06:20.564Z,98.3901
2023-05-14T17:07:21.362Z,98.4675
2023-05-14T17:08:22.681Z,98.4725
2023-05-14T17:09:24.115Z,98.5070
2023-05-14T17:10:24.450Z,98.5596
2023-05-14T17:11:25.543Z,98.6199
2023-05-14T17:12:25.746Z,98.6717
2023-05-14T17:15:28.129Z,98.8012
2023-05-14T17:16:27.870Z,98.8410
2023-05-14T17:17:28.761Z,98.8689
2023-05-14T17:19:29.431Z,98.8771
2023-05-14T17:20:29.911Z,98.8877
2023-05-14T17:22:32.389Z,98.9117
2023-05-14T17:23:32.565Z,98.9326
2023-05-14T17:24:32.630Z,98.9419
2023-05-14T17:25:33.398Z,98.9552
2023-05-14T17:27:36.861Z,98.9626
2023-05-14T17:28:38.013Z,98.9672
2023-05-14T17:29:39.351Z,98.9802
2023-05-14T17:30:39.416Z,98.9931
2023-05-14T17:31:40.269Z,99.0264
2023-05-14T17:32:41.621Z,99.0551
2023-05-14T17:33:42.600Z,99.0764
2023-05-14T17:34:43.595Z,99.0911
2023-05-14T17:35:44.463Z,99.1047
2023-05-14T17:36:44.371Z,99.1112
2023-05-14T17:37:45.120Z,99.1314
2023-05-14T17:38:47.508Z,99.1513
2023-05-14T17:48:53.030Z,98.4072
2023-05-14T17:49:53.201Z,98.4022
2023-05-14T17:50:54.249Z,98.4158
2023-05-14T17:51:55.167Z,98.4634
2023-05-14T17:52:56.789Z,98.5399
2023-05-14T17:53:56.383Z,98.5954
2023-05-14T17:54:57.246Z,98.6505
2023-05-14T17:55:57.346Z,98.7019
2023-05-14T17:56:58.110Z,98.7494
2023-05-14T17:57:59.321Z,98.7746
2023-05-14T17:59:00.055Z,98.7526
2023-05-14T18:00:01.183Z,98.7573
2023-05-14T18:01:01.301Z,98.7793
2023-05-14T18:02:01.942Z,98.7802
2023-05-14T18:03:02.360Z,98.7885
2023-05-14T18:04:02.549Z,98.8202
2023-05-14T18:05:02.998Z,98.8473
2023-05-14T18:06:03.592Z,98.8913
2023-05-14T18:07:04.522Z,98.9188
2023-05-14T18:08:05.957Z,98.9365
2023-05-14T18:09:07.105Z,98.9690
2023-05-14T18:10:07.167Z,98.9729
2023-05-14T18:11:07.917Z,98.9593
2023-05-14T18:12:08.697Z,98.9400
2023-05-14T18:13:09.675Z,98.9540
2023-05-14T18:14:11.055Z,98.9570
2023-05-14T18:15:11.328Z,98.9630
2023-05-14T18:16:12.015Z,98.9501
2023-05-14T18:17:12.367Z,98.9075
2023-05-14T18:18:12.655Z,98.9104
2023-05-14T18:19:13.387Z,98.9149
2023-05-14T18:20:13.487Z,98.8954
2023-05-14T18:21:14.830Z,98.9134
2023-05-14T18:23:15.340Z,98.8981
2023-05-14T18:24:16.039Z,98.8806
2023-05-14T18:25:16.636Z,98.8502
2023-05-14T18:26:18.008Z,98.8357
2023-05-14T18:28:19.014Z,98.7575
2023-05-14T18:29:19.918Z,98.7549
2023-05-14T18:30:20.327Z,98.7365
2023-05-14T18:31:21.041Z,98.7559
2023-05-14T18:32:21.202Z,98.7597
2023-05-14T18:42:12.675Z,99.4148
2023-05-14T18:43:13.708Z,99.4556
2023-05-14T18:44:13.862Z,99.4755
2023-05-14T18:45:14.512Z,99.5024
2023-05-14T18:46:16.056Z,99.5256
2023-05-14T18:47:17.084Z,99.5606
2023-05-14T18:48:17.150Z,99.5815
2023-05-14T18:49:18.397Z,99.6028
2023-05-14T18:50:19.269Z,99.6270
2023-05-14T18:51:19.374Z,99.6436
2023-05-14T18:52:20.435Z,99.6607
2023-05-14T18:53:22.302Z,99.6795
2023-05-14T18:58:26.618Z,99.8035
2023-05-14T18:59:26.904Z,99.8249
2023-05-14T19:01:27.801Z,99.8681
2023-05-14T19:04:33.135Z,99.9346
2023-05-14T19:05:31.141Z,99.9500
2023-05-14T19:11:35.279Z,100.0000
2023-05-14T19:12:35.509Z,100.0000
2023-05-14T19:14:38.572Z,100.0000
2023-05-14T19:15:38.721Z,100.0000
2023-05-14T19:16:39.995Z,100.0000
2023-05-14T19:17:42.078Z,100.0000
2023-05-14T19:18:42.729Z,100.0000